Time;durP1;ratioP1;P1;durP2;ratioP2;P2;SDS_P1;SDS_P2;PMS_P1;PMS_P2;Temp;Humidity;BMP_temperature;BMP_pressure;BME280_temperature;BME280_humidity;BME280_pressure;Samples;Min_cycle;Max_cycle;Signal;HPM_P1;HPM_P2
2022/01/22 00:00:09;;;;;;;15.40;6.83;;;3.20;99.90;;;;;;5072083;28;20476;-71
2022/01/22 00:02:36;;;;;;;13.70;6.97;;;3.20;99.90;;;;;;5072015;28;20127;-71
2022/01/22 00:05:07;;;;;;;11.53;5.93;;;3.20;99.90;;;;;;5071852;28;20083;-71
2022/01/22 00:07:35;;;;;;;13.33;7.00;;;3.20;99.90;;;;;;5072133;28;20087;-71
2022/01/22 00:10:06;;;;;;;14.47;7.07;;;3.20;99.90;;;;;;5072039;28;20080;-71
2022/01/22 00:13:06;;;;;;;13.23;6.40;;;3.10;99.90;;;;;;5071935;28;20504;-71
2022/01/22 00:15:32;;;;;;;14.40;7.60;;;3.20;99.90;;;;;;5071719;28;20063;-71
2022/01/22 00:18:00;;;;;;;13.80;6.17;;;3.30;99.90;;;;;;5071997;28;20052;-71
2022/01/22 00:20:29;;;;;;;13.90;6.47;;;3.20;99.90;;;;;;5071838;28;20144;-71
2022/01/22 00:22:56;;;;;;;14.73;6.90;;;3.40;99.90;;;;;;5071692;28;20045;-71
2022/01/22 00:25:23;;;;;;;13.50;6.43;;;3.40;99.90;;;;;;5071603;28;20139;-71
2022/01/22 00:27:51;;;;;;;13.37;6.60;;;3.40;99.90;;;;;;5071639;28;20132;-71
2022/01/22 00:30:21;;;;;;;14.23;6.40;;;3.40;99.90;;;;;;5071505;28;20102;-71
2022/01/22 00:32:48;;;;;;;11.63;6.27;;;3.40;99.90;;;;;;5071495;28;20052;-71
2022/01/22 00:35:15;;;;;;;11.77;6.43;;;3.40;99.90;;;;;;5071269;28;20099;-71
2022/01/22 00:37:48;;;;;;;14.50;6.57;;;3.30;99.90;;;;;;5071602;28;20135;-71
2022/01/22 00:40:16;;;;;;;14.33;6.97;;;3.40;99.90;;;;;;5071443;28;20560;-71
2022/01/22 00:42:44;;;;;;;12.43;5.87;;;3.40;99.90;;;;;;5071320;28;20055;-71
2022/01/22 00:45:11;;;;;;;14.13;7.60;;;3.40;99.90;;;;;;5071584;28;20127;-71
2022/01/22 00:47:39;;;;;;;13.07;6.50;;;3.40;99.90;;;;;;5053772;28;20072;-71
2022/01/22 00:50:11;;;;;;;13.03;6.87;;;3.40;99.90;;;;;;5071584;28;20131;-71
2022/01/22 00:52:38;;;;;;;12.33;6.90;;;3.40;99.90;;;;;;5071642;28;20048;-71
2022/01/22 00:55:08;;;;;;;12.43;6.73;;;3.50;99.90;;;;;;5071169;28;20135;-71
2022/01/22 00:57:35;;;;;;;16.03;7.40;;;3.50;99.90;;;;;;5071448;28;20137;-71
2022/01/22 01:00:04;;;;;;;14.03;7.33;;;3.50;99.90;;;;;;5071346;28;20465;-71
2022/01/22 01:02:32;;;;;;;13.80;6.80;;;3.50;99.90;;;;;;5071464;28;20087;-71
2022/01/22 01:04:59;;;;;;;14.67;6.67;;;3.50;99.90;;;;;;5071913;28;20456;-71
2022/01/22 01:07:25;;;;;;;15.07;7.23;;;3.50;99.90;;;;;;5071785;28;20135;-71
2022/01/22 01:09:52;;;;;;;17.17;7.53;;;3.50;99.90;;;;;;5071938;28;20049;-71
2022/01/22 01:12:21;;;;;;;17.70;8.23;;;3.50;99.90;;;;;;5070943;28;20124;-71
2022/01/22 01:14:55;;;;;;;18.63;9.23;;;3.50;99.90;;;;;;5071848;28;20059;-71
2022/01/22 01:17:46;;;;;;;16.07;7.30;;;3.50;99.90;;;;;;5071684;28;20496;-71
2022/01/22 01:33:59;;;;;;;15.53;7.00;;;3.50;99.90;;;;;;5071103;28;20051;-71
2022/01/22 01:36:26;;;;;;;15.63;7.77;;;3.50;99.90;;;;;;5071130;28;20071;-71
2022/01/22 01:38:57;;;;;;;19.23;8.47;;;3.50;99.90;;;;;;5070845;28;20135;-71
2022/01/22 01:41:31;;;;;;;19.43;8.53;;;3.50;99.90;;;;;;5070959;28;20076;-71
2022/01/22 01:44:00;;;;;;;18.57;8.80;;;3.50;99.90;;;;;;5070962;28;20098;-71
2022/01/22 01:46:30;;;;;;;19.27;9.30;;;3.60;99.90;;;;;;5070955;28;20541;-71
2022/01/22 01:48:57;;;;;;;17.03;8.23;;;3.50;99.90;;;;;;5074095;28;20098;-71
2022/01/22 01:51:27;;;;;;;14.37;7.53;;;3.60;99.90;;;;;;5074666;28;20044;-71
2022/01/22 01:54:00;;;;;;;15.07;7.43;;;3.60;99.90;;;;;;5074266;28;20416;-71
2022/01/22 01:59:16;;;;;;;18.90;8.60;;;3.60;99.90;;;;;;5074899;28;20151;-71
2022/01/22 02:01:44;;;;;;;16.50;8.17;;;3.60;99.90;;;;;;5074862;28;20611;-71
2022/01/22 02:04:13;;;;;;;15.87;8.50;;;3.60;99.90;;;;;;5074250;28;20058;-71
2022/01/22 02:06:40;;;;;;;16.80;7.97;;;3.60;99.90;;;;;;5074087;28;20507;-71
2022/01/22 02:09:09;;;;;;;18.13;8.67;;;3.70;99.90;;;;;;5074522;28;20052;-71
2022/01/22 02:11:37;;;;;;;17.83;8.50;;;3.70;99.90;;;;;;5074368;28;20044;-71
2022/01/22 02:14:10;;;;;;;13.37;7.27;;;3.60;99.90;;;;;;5074021;28;20500;-71
2022/01/22 02:24:59;;;;;;;15.30;7.27;;;3.80;99.90;;;;;;5074037;28;20054;-71
2022/01/22 02:27:26;;;;;;;16.63;8.67;;;3.80;99.90;;;;;;5074152;28;20052;-71
2022/01/22 02:29:52;;;;;;;16.20;8.37;;;3.80;99.90;;;;;;5074209;28;20128;-71
2022/01/22 02:32:47;;;;;;;18.90;8.30;;;3.90;99.90;;;;;;5073840;28;20057;-71
2022/01/22 02:35:22;;;;;;;15.47;7.67;;;3.90;99.90;;;;;;5073941;28;20055;-71
2022/01/22 02:37:56;;;;;;;13.63;7.60;;;3.80;99.90;;;;;;5073734;28;20062;-71
2022/01/22 02:40:26;;;;;;;13.87;7.17;;;3.90;99.90;;;;;;5073749;28;20508;-71
2022/01/22 02:42:53;;;;;;;16.00;8.53;;;3.90;99.90;;;;;;5073442;28;20481;-71
2022/01/22 02:45:23;;;;;;;17.50;7.93;;;3.90;99.90;;;;;;5073646;28;20135;-71
2022/01/22 02:47:50;;;;;;;15.47;8.03;;;3.90;99.90;;;;;;5073528;28;20052;-71
2022/01/22 02:50:21;;;;;;;15.60;8.53;;;3.90;99.90;;;;;;5073573;28;20140;-71
2022/01/22 02:52:48;;;;;;;15.83;7.87;;;3.90;99.90;;;;;;5073359;28;20123;-71
2022/01/22 02:55:16;;;;;;;15.87;8.43;;;3.90;99.90;;;;;;5073650;28;20135;-71
2022/01/22 02:57:45;;;;;;;16.17;7.97;;;3.90;99.90;;;;;;5073588;28;20056;-71
2022/01/22 03:00:16;;;;;;;16.40;7.70;;;3.90;99.90;;;;;;5073513;28;20048;-71
2022/01/22 03:02:43;;;;;;;15.07;7.83;;;3.90;99.90;;;;;;5073488;28;20143;-71
2022/01/22 03:05:11;;;;;;;12.90;7.07;;;3.90;99.90;;;;;;5073190;28;20394;-71
2022/01/22 03:07:40;;;;;;;12.60;6.70;;;3.90;99.90;;;;;;5073556;28;20129;-71
2022/01/22 03:10:08;;;;;;;14.53;7.40;;;4.00;99.90;;;;;;5073071;28;20497;-71
2022/01/22 03:13:09;;;;;;;13.97;7.20;;;3.90;99.90;;;;;;5072931;28;20455;-71
2022/01/22 03:18:33;;;;;;;16.10;7.43;;;4.00;99.90;;;;;;5072536;28;20056;-71
2022/01/22 03:21:11;;;;;;;15.13;7.47;;;4.00;99.90;;;;;;5073158;28;20048;-71
2022/01/22 03:29:11;;;;;;;13.73;7.20;;;3.90;99.90;;;;;;5072699;28;20051;-71
2022/01/22 03:31:41;;;;;;;13.50;7.13;;;3.90;99.90;;;;;;5072425;28;20044;-71
2022/01/22 03:34:08;;;;;;;13.47;6.70;;;3.90;99.90;;;;;;5072772;28;20056;-71
2022/01/22 03:36:35;;;;;;;12.27;7.07;;;4.00;99.90;;;;;;5072472;28;20052;-71
2022/01/22 03:39:04;;;;;;;14.53;6.93;;;4.00;99.90;;;;;;5073026;28;20052;-71
2022/01/22 03:41:31;;;;;;;16.23;7.03;;;3.90;99.90;;;;;;5072914;28;20052;-71
2022/01/22 03:43:58;;;;;;;16.97;6.90;;;4.00;99.90;;;;;;5072353;28;20504;-71
2022/01/22 03:46:26;;;;;;;13.77;6.70;;;4.00;99.90;;;;;;5072255;28;20083;-71
2022/01/22 03:48:53;;;;;;;16.40;6.90;;;4.00;99.90;;;;;;5072373;28;20588;-71
2022/01/22 03:51:20;;;;;;;13.93;6.63;;;4.00;99.90;;;;;;5072118;28;20055;-71
2022/01/22 03:53:48;;;;;;;15.30;6.50;;;4.00;99.90;;;;;;5072239;28;20083;-71
2022/01/22 03:56:15;;;;;;;11.53;6.30;;;4.00;99.90;;;;;;5072025;28;20135;-71
2022/01/22 03:58:44;;;;;;;12.53;7.27;;;4.00;99.90;;;;;;5072263;28;20131;-71
2022/01/22 04:01:45;;;;;;;12.53;7.10;;;3.90;99.90;;;;;;5160856;22;20118;-74
2022/01/22 04:04:15;;;;;;;13.17;7.27;;;3.90;99.90;;;;;;4999760;28;20053;-74
2022/01/22 04:09:31;;;;;;;14.13;7.68;;;4.00;99.90;;;;;;4989470;28;20124;-76
2022/01/22 04:12:00;;;;;;;13.20;6.80;;;4.00;99.90;;;;;;5014843;28;20050;-75
2022/01/22 04:14:31;;;;;;;14.40;7.23;;;4.00;99.90;;;;;;5000531;28;20050;-75
2022/01/22 04:17:09;;;;;;;14.73;6.23;;;4.00;99.90;;;;;;4995733;28;20415;-76
2022/01/22 04:25:08;;;;;;;16.30;6.63;;;4.00;99.90;;;;;;4995310;28;20085;-75
2022/01/22 04:27:35;;;;;;;14.97;6.97;;;4.00;99.90;;;;;;4995399;28;20540;-75
2022/01/22 04:30:02;;;;;;;14.07;5.97;;;4.00;99.90;;;;;;4995821;28;20133;-77
2022/01/22 04:32:31;;;;;;;11.83;7.20;;;4.10;99.90;;;;;;4995108;28;20576;-75
2022/01/22 04:35:00;;;;;;;11.00;6.97;;;4.00;99.90;;;;;;4995443;28;20111;-74
2022/01/22 04:37:28;;;;;;;10.57;6.33;;;4.00;99.90;;;;;;4995657;28;20522;-75
2022/01/22 04:39:55;;;;;;;14.80;8.13;;;3.90;99.90;;;;;;4995444;28;20054;-75
2022/01/22 04:42:23;;;;;;;13.23;6.77;;;4.00;99.90;;;;;;4995510;28;20088;-75
2022/01/22 04:44:56;;;;;;;14.20;7.60;;;4.00;99.90;;;;;;4995293;28;20141;-75
2022/01/22 04:47:34;;;;;;;14.27;6.53;;;3.90;99.90;;;;;;4995442;28;20058;-75
2022/01/22 04:55:29;;;;;;;15.00;8.13;;;4.10;99.90;;;;;;4995155;28;20050;-75
2022/01/22 04:57:56;;;;;;;12.27;6.17;;;4.00;99.90;;;;;;4995114;28;20133;-76
2022/01/22 05:00:23;;;;;;;13.57;6.63;;;4.10;99.90;;;;;;4995336;28;20050;-75
2022/01/22 05:02:51;;;;;;;12.90;6.90;;;4.10;99.90;;;;;;4995205;28;20180;-76
2022/01/22 05:05:19;;;;;;;11.20;6.57;;;4.00;99.90;;;;;;4995366;28;20050;-76
2022/01/22 05:07:46;;;;;;;14.57;7.37;;;4.00;99.90;;;;;;4995104;28;20142;-75
2022/01/22 05:10:13;;;;;;;12.30;6.10;;;4.10;99.90;;;;;;4995346;28;20100;-75
2022/01/22 05:12:40;;;;;;;13.60;6.63;;;4.10;99.90;;;;;;4994639;28;20046;-76
2022/01/22 05:15:08;;;;;;;12.10;6.33;;;4.10;99.90;;;;;;4994934;28;20496;-75
2022/01/22 05:17:38;;;;;;;13.80;5.93;;;4.10;99.90;;;;;;4994795;28;20046;-75
2022/01/22 05:20:10;;;;;;;16.73;7.10;;;4.10;99.90;;;;;;4995232;28;20055;-75
2022/01/22 05:22:52;;;;;;;11.80;6.60;;;4.10;99.90;;;;;;4997944;28;20422;-72
2022/01/22 05:25:24;;;;;;;13.40;6.60;;;4.10;99.90;;;;;;4999126;28;20117;-73
2022/01/22 05:28:05;;;;;;;9.97;6.03;;;4.10;99.90;;;;;;4998420;28;20101;-75
2022/01/22 05:33:30;;;;;;;9.57;5.70;;;4.10;99.90;;;;;;4996072;28;20507;-74
2022/01/22 05:38:43;;;;;;;12.33;6.20;;;4.10;99.90;;;;;;4997834;28;20090;-75
2022/01/22 05:41:11;;;;;;;13.23;6.27;;;4.10;99.90;;;;;;4998480;28;20064;-75
2022/01/22 05:43:38;;;;;;;11.20;6.03;;;4.00;99.90;;;;;;4998584;28;20133;-75
2022/01/22 05:46:05;;;;;;;9.70;5.70;;;4.00;99.90;;;;;;4997963;28;20133;-75
2022/01/22 05:48:32;;;;;;;9.73;5.43;;;4.00;99.90;;;;;;4998341;28;20046;-73
2022/01/22 05:51:02;;;;;;;10.20;5.20;;;4.00;99.90;;;;;;4998396;28;20173;-75
2022/01/22 05:53:41;;;;;;;10.37;5.77;;;4.00;99.90;;;;;;4997986;28;20425;-75
2022/01/22 06:01:38;;;;;;;11.10;5.00;;;3.90;99.90;;;;;;4998100;28;20337;-76
2022/01/22 06:04:05;;;;;;;10.67;6.00;;;3.90;99.90;;;;;;4998416;28;20046;-75
2022/01/22 06:06:32;;;;;;;9.50;5.57;;;3.90;99.90;;;;;;4998176;28;20129;-75
2022/01/22 06:09:02;;;;;;;12.67;5.47;;;3.90;99.90;;;;;;4998320;28;20046;-75
2022/01/22 06:11:36;;;;;;;10.73;6.10;;;3.80;99.90;;;;;;4998512;28;20058;-75
2022/01/22 06:14:04;;;;;;;10.10;5.63;;;3.80;99.90;;;;;;4998116;28;20172;-76
2022/01/22 06:16:31;;;;;;;10.17;6.20;;;3.80;99.90;;;;;;4998369;28;20108;-75
2022/01/22 06:18:58;;;;;;;15.67;6.50;;;3.80;99.90;;;;;;4998344;28;20468;-75
2022/01/22 06:21:25;;;;;;;10.70;6.00;;;3.80;99.90;;;;;;4997805;28;20112;-75
2022/01/22 06:23:52;;;;;;;10.80;5.80;;;3.80;99.90;;;;;;4997632;28;20042;-75
2022/01/22 06:26:19;;;;;;;9.70;5.43;;;3.80;99.90;;;;;;4997622;28;20054;-75
2022/01/22 06:28:47;;;;;;;13.57;6.07;;;3.80;99.90;;;;;;4998322;28;20116;-75
2022/01/22 06:31:15;;;;;;;13.63;6.53;;;3.80;99.90;;;;;;4997966;28;20082;-75
2022/01/22 06:33:42;;;;;;;11.67;6.70;;;3.80;99.90;;;;;;4997486;28;20085;-76
2022/01/22 06:36:09;;;;;;;10.67;5.57;;;3.80;99.90;;;;;;4997404;28;20088;-75
2022/01/22 06:38:35;;;;;;;11.00;6.13;;;3.80;99.90;;;;;;4997727;28;20129;-76
2022/01/22 06:43:48;;;;;;;11.47;6.43;;;3.80;99.90;;;;;;4997262;28;20129;-75
2022/01/22 06:46:15;;;;;;;10.30;5.73;;;3.80;99.90;;;;;;4997146;28;20085;-75
2022/01/22 06:48:42;;;;;;;10.27;5.33;;;3.80;99.90;;;;;;4996652;28;20487;-77
2022/01/22 06:51:09;;;;;;;9.83;4.63;;;3.90;99.90;;;;;;4997622;28;20070;-75
2022/01/22 06:53:40;;;;;;;11.50;5.53;;;3.90;99.90;;;;;;4997414;28;20129;-75
2022/01/22 06:56:09;;;;;;;9.67;5.27;;;3.90;99.90;;;;;;4997040;28;20055;-75
2022/01/22 06:58:36;;;;;;;10.47;5.23;;;3.90;99.90;;;;;;4997044;28;20050;-76
2022/01/22 07:01:05;;;;;;;9.23;5.40;;;3.90;99.90;;;;;;4998706;28;20069;-76
2022/01/22 07:03:32;;;;;;;9.50;5.73;;;3.90;99.90;;;;;;4997107;28;20462;-75
2022/01/22 07:05:59;;;;;;;9.33;5.57;;;3.90;99.90;;;;;;4996367;28;20054;-76
2022/01/22 07:08:26;;;;;;;8.67;4.97;;;3.90;99.90;;;;;;4996334;28;20077;-75
2022/01/22 07:10:53;;;;;;;10.50;4.50;;;3.90;99.90;;;;;;4996594;28;20142;-76
2022/01/22 07:13:20;;;;;;;9.03;4.93;;;3.90;99.90;;;;;;4996198;28;20069;-75
2022/01/22 07:15:47;;;;;;;8.80;4.60;;;4.00;99.90;;;;;;4996299;28;20074;-75
2022/01/22 07:18:15;;;;;;;9.27;4.97;;;4.00;99.90;;;;;;4995855;28;20125;-76
2022/01/22 07:20:44;;;;;;;9.33;5.20;;;4.00;99.90;;;;;;4996157;28;20062;-76
2022/01/22 07:23:18;;;;;;;7.63;4.70;;;4.00;99.90;;;;;;4995873;28;20050;-73
2022/01/22 07:25:45;;;;;;;10.03;5.20;;;4.00;99.90;;;;;;4995835;28;20054;-74
2022/01/22 07:28:12;;;;;;;10.17;5.50;;;3.90;99.90;;;;;;4995787;28;20407;-74
2022/01/22 07:30:40;;;;;;;7.97;4.43;;;4.00;99.90;;;;;;4995843;28;20242;-74
2022/01/22 07:33:06;;;;;;;8.87;4.90;;;4.00;99.90;;;;;;4995872;28;20070;-74
2022/01/22 07:35:35;;;;;;;8.83;5.00;;;4.00;99.90;;;;;;4995728;28;20134;-74
2022/01/22 07:38:02;;;;;;;8.77;4.77;;;4.10;99.90;;;;;;4995679;28;20455;-74
2022/01/22 07:40:29;;;;;;;8.50;4.73;;;4.00;99.90;;;;;;4996027;28;20073;-75
2022/01/22 07:42:57;;;;;;;11.67;5.10;;;4.10;99.90;;;;;;4995554;28;20089;-74
2022/01/22 07:45:24;;;;;;;9.23;4.73;;;4.10;99.90;;;;;;4994439;28;20496;-74
2022/01/22 07:47:51;;;;;;;8.47;4.63;;;4.10;99.90;;;;;;4995492;28;20133;-75
2022/01/22 07:50:18;;;;;;;8.07;4.63;;;4.00;99.90;;;;;;4995285;28;20510;-74
2022/01/22 07:52:47;;;;;;;10.13;5.50;;;4.10;99.90;;;;;;4995285;28;20082;-74
2022/01/22 07:55:15;;;;;;;8.40;4.80;;;4.20;99.90;;;;;;4995236;28;20129;-74
2022/01/22 07:57:44;;;;;;;9.40;4.30;;;4.00;99.90;;;;;;4995296;28;20058;-74
2022/01/22 08:00:11;;;;;;;11.57;5.40;;;4.10;99.90;;;;;;4995333;28;20109;-74
2022/01/22 08:02:39;;;;;;;8.67;4.70;;;4.10;99.90;;;;;;4995074;28;20062;-74
2022/01/22 08:05:07;;;;;;;8.40;4.50;;;4.10;99.90;;;;;;4995204;28;20056;-74
2022/01/22 08:07:34;;;;;;;8.77;4.43;;;4.10;99.90;;;;;;4995587;28;20053;-74
2022/01/22 08:10:04;;;;;;;10.63;4.70;;;4.20;99.90;;;;;;4995316;28;20129;-74
2022/01/22 08:12:30;;;;;;;8.67;4.47;;;4.10;99.90;;;;;;4995086;28;20054;-75
2022/01/22 08:14:57;;;;;;;8.27;4.27;;;4.20;99.90;;;;;;4994594;28;20085;-74
2022/01/22 08:17:24;;;;;;;8.00;3.93;;;4.10;99.90;;;;;;4995106;28;20125;-74
2022/01/22 08:19:53;;;;;;;8.27;4.40;;;4.20;99.90;;;;;;4995235;28;20134;-74
2022/01/22 08:22:20;;;;;;;17.03;4.80;;;4.20;99.90;;;;;;4995391;28;20088;-75
2022/01/22 08:24:47;;;;;;;10.60;4.93;;;4.20;99.90;;;;;;4995152;28;20107;-74
2022/01/22 08:27:16;;;;;;;8.40;4.57;;;4.30;99.90;;;;;;4995067;28;20084;-74
2022/01/22 08:29:44;;;;;;;8.87;5.00;;;4.20;99.90;;;;;;4994597;28;20077;-74
2022/01/22 08:32:30;;;;;;;9.87;5.70;;;4.30;99.90;;;;;;4994433;28;20085;-74
2022/01/22 08:37:42;;;;;;;8.13;4.73;;;4.30;99.90;;;;;;4994845;28;20057;-75
2022/01/22 08:40:11;;;;;;;9.13;4.70;;;4.30;99.90;;;;;;4994337;28;20133;-75
2022/01/22 08:42:40;;;;;;;8.20;4.33;;;4.30;99.90;;;;;;4994646;28;20101;-76
2022/01/22 08:45:08;;;;;;;8.93;4.87;;;4.40;99.90;;;;;;4995033;28;20133;-75
2022/01/22 08:47:35;;;;;;;10.33;5.10;;;4.40;99.90;;;;;;4994535;28;20453;-75
2022/01/22 08:50:02;;;;;;;9.93;5.40;;;4.40;99.90;;;;;;4994813;28;20129;-76
2022/01/22 08:52:32;;;;;;;10.37;4.87;;;4.40;99.90;;;;;;4994597;28;20133;-76
2022/01/22 08:54:59;;;;;;;8.40;4.60;;;4.50;99.90;;;;;;4994775;28;20093;-75
2022/01/22 08:57:27;;;;;;;9.87;4.77;;;4.40;99.90;;;;;;4994012;28;20570;-75
2022/01/22 08:59:55;;;;;;;9.60;4.90;;;4.50;99.90;;;;;;4994312;28;20088;-75
2022/01/22 09:02:22;;;;;;;9.90;5.20;;;4.40;99.90;;;;;;4994108;28;20133;-76
2022/01/22 09:04:49;;;;;;;8.83;4.90;;;4.50;99.90;;;;;;4994282;28;20108;-76
2022/01/22 09:07:16;;;;;;;9.40;4.77;;;4.50;99.90;;;;;;4995008;28;20047;-75
2022/01/22 09:09:43;;;;;;;7.65;4.38;;;4.50;99.90;;;;;;4995088;28;20133;-75
2022/01/22 09:12:11;;;;;;;8.13;4.35;;;4.50;99.90;;;;;;4994076;28;20089;-76
2022/01/22 09:14:38;;;;;;;8.40;4.73;;;4.60;99.90;;;;;;4994185;28;20126;-76
2022/01/22 09:17:06;;;;;;;8.82;4.78;;;4.60;99.90;;;;;;4994460;28;20566;-75
2022/01/22 09:19:35;;;;;;;9.15;4.68;;;4.60;99.90;;;;;;4994803;28;20082;-75
2022/01/22 09:22:04;;;;;;;9.37;4.60;;;4.60;99.90;;;;;;4994361;28;20069;-75
2022/01/22 09:24:31;;;;;;;9.60;4.47;;;4.60;99.90;;;;;;4995047;28;20142;-75
2022/01/22 09:27:01;;;;;;;8.77;5.20;;;4.60;99.90;;;;;;4994581;28;20050;-75
2022/01/22 09:29:29;;;;;;;8.90;4.93;;;4.70;99.90;;;;;;4995474;28;20086;-75
2022/01/22 09:31:56;;;;;;;8.77;4.53;;;4.70;99.90;;;;;;4995131;28;20058;-75
2022/01/22 09:34:24;;;;;;;7.43;4.33;;;4.80;99.90;;;;;;4995011;28;20141;-75
2022/01/22 09:36:51;;;;;;;7.55;4.53;;;4.70;99.90;;;;;;4994691;28;20141;-74
2022/01/22 09:39:18;;;;;;;8.60;4.72;;;4.70;99.90;;;;;;4994602;28;20109;-75
2022/01/22 09:41:45;;;;;;;6.90;4.10;;;4.80;99.90;;;;;;4994374;28;20133;-75
2022/01/22 09:44:12;;;;;;;7.05;3.95;;;4.80;99.90;;;;;;4994155;28;20574;-75
2022/01/22 09:46:40;;;;;;;8.75;4.20;;;4.80;99.90;;;;;;4993506;28;20050;-75
2022/01/22 09:49:07;;;;;;;8.88;4.40;;;4.90;99.90;;;;;;4993115;28;20062;-75
2022/01/22 09:51:36;;;;;;;7.15;4.40;;;4.90;99.90;;;;;;4994179;28;20056;-75
2022/01/22 09:54:03;;;;;;;10.00;4.40;;;5.00;99.90;;;;;;4993651;28;20130;-75
2022/01/22 09:56:31;;;;;;;8.38;4.35;;;5.00;99.90;;;;;;4994104;28;20086;-75
2022/01/22 09:58:59;;;;;;;7.00;4.15;;;5.00;99.90;;;;;;4993934;28;20057;-75
2022/01/22 10:01:28;;;;;;;8.80;4.00;;;5.00;99.90;;;;;;4993843;28;20096;-75
2022/01/22 10:03:58;;;;;;;6.88;4.07;;;5.00;99.90;;;;;;4993551;28;20133;-75
2022/01/22 10:06:27;;;;;;;7.43;3.90;;;5.00;99.90;;;;;;4993620;28;20137;-75
2022/01/22 10:09:06;;;;;;;7.18;3.75;;;5.00;99.90;;;;;;4995208;28;20051;-75
2022/01/22 10:11:34;;;;;;;7.43;4.03;;;5.10;99.90;;;;;;4996673;28;20062;-75
2022/01/22 10:14:02;;;;;;;7.63;3.72;;;5.10;99.90;;;;;;4996694;28;20114;-75
2022/01/22 10:16:31;;;;;;;9.30;4.00;;;5.10;99.90;;;;;;4996896;28;20138;-76
2022/01/22 10:19:13;;;;;;;6.60;3.58;;;5.10;99.90;;;;;;4997158;28;20060;-75
2022/01/22 10:21:42;;;;;;;7.57;3.75;;;5.10;99.90;;;;;;4997317;28;20085;-75
2022/01/22 10:24:43;;;;;;;6.43;3.75;;;5.10;99.90;;;;;;4997377;28;20126;-77
2022/01/22 10:27:26;;;;;;;6.20;3.38;;;5.10;99.90;;;;;;4937324;29;20480;-75
2022/01/22 10:29:56;;;;;;;6.22;3.03;;;5.10;99.90;;;;;;4991318;28;20073;-75
2022/01/22 10:32:32;;;;;;;8.15;3.60;;;5.20;99.90;;;;;;4996532;28;20058;-75
2022/01/22 10:35:08;;;;;;;6.32;3.30;;;5.20;99.90;;;;;;4996409;28;20050;-75
2022/01/22 10:37:35;;;;;;;6.93;3.40;;;5.20;99.90;;;;;;4996224;28;20050;-75
2022/01/22 10:40:28;;;;;;;6.85;3.40;;;5.20;99.90;;;;;;4996946;28;20641;-74
2022/01/22 10:43:17;;;;;;;7.18;3.95;;;5.20;99.90;;;;;;4982599;28;20407;-75
2022/01/22 10:45:59;;;;;;;6.78;3.65;;;5.10;99.90;;;;;;4996377;28;20054;-75
2022/01/22 10:48:26;;;;;;;6.75;3.67;;;5.20;99.90;;;;;;4996179;28;20578;-75
2022/01/22 10:51:04;;;;;;;8.35;3.78;;;5.30;99.90;;;;;;4995809;28;20055;-76
2022/01/22 10:53:46;;;;;;;7.85;3.85;;;5.20;99.90;;;;;;4996375;28;20081;-74
2022/01/22 10:56:17;;;;;;;6.50;3.45;;;5.30;99.90;;;;;;4996197;28;20141;-75
2022/01/22 10:59:00;;;;;;;7.85;4.00;;;5.20;99.90;;;;;;4997075;28;20113;-75
2022/01/22 11:01:29;;;;;;;6.65;3.72;;;5.20;99.90;;;;;;4996854;28;20113;-75
2022/01/22 11:04:04;;;;;;;6.32;3.47;;;5.10;99.90;;;;;;4996067;28;20082;-75
2022/01/22 11:06:31;;;;;;;6.88;3.47;;;5.20;99.90;;;;;;4995440;28;20133;-75
2022/01/22 11:08:58;;;;;;;6.90;3.90;;;5.20;99.90;;;;;;4996724;28;20066;-75
2022/01/22 11:11:26;;;;;;;6.85;3.45;;;5.20;99.90;;;;;;4996054;28;20145;-76
2022/01/22 11:13:53;;;;;;;8.10;3.80;;;5.20;99.90;;;;;;4995787;28;20447;-74
2022/01/22 11:16:21;;;;;;;7.05;3.80;;;5.20;99.90;;;;;;4995713;28;20129;-75
2022/01/22 11:18:50;;;;;;;8.50;3.97;;;5.20;99.90;;;;;;4995486;28;20108;-75
2022/01/22 11:21:17;;;;;;;8.73;3.70;;;5.20;99.90;;;;;;4995756;28;20054;-76
2022/01/22 11:23:46;;;;;;;6.78;3.53;;;5.30;99.90;;;;;;4995498;28;20129;-74
2022/01/22 11:26:15;;;;;;;7.82;3.60;;;5.20;99.90;;;;;;4995065;28;20134;-74
2022/01/22 11:28:45;;;;;;;6.80;3.38;;;5.20;99.90;;;;;;4995948;28;20369;-74
2022/01/22 11:31:16;;;;;;;6.57;3.55;;;5.20;99.90;;;;;;4996647;28;20497;-75
2022/01/22 11:33:45;;;;;;;6.57;3.35;;;5.30;99.90;;;;;;4995765;28;20137;-76
2022/01/22 11:36:17;;;;;;;6.80;3.55;;;5.30;99.90;;;;;;4996408;28;20091;-75
2022/01/22 11:38:51;;;;;;;6.15;3.13;;;5.30;99.90;;;;;;4995312;28;20046;-75
2022/01/22 11:41:21;;;;;;;7.05;3.80;;;5.30;99.90;;;;;;4995841;28;20143;-74
2022/01/22 11:44:06;;;;;;;7.57;4.13;;;5.30;99.90;;;;;;4995793;28;20049;-74
2022/01/22 11:46:37;;;;;;;7.88;3.38;;;5.30;99.90;;;;;;4995400;28;20050;-75
2022/01/22 11:49:21;;;;;;;7.25;4.03;;;5.30;99.90;;;;;;4996290;28;20058;-74
2022/01/22 11:51:50;;;;;;;6.40;3.67;;;5.30;99.90;;;;;;4996620;28;20051;-74
2022/01/22 11:54:23;;;;;;;6.50;3.58;;;5.20;99.90;;;;;;4995398;28;20074;-74
2022/01/22 11:56:53;;;;;;;7.90;4.07;;;5.20;99.90;;;;;;4995104;28;20462;-74
2022/01/22 11:59:29;;;;;;;7.22;3.95;;;5.20;99.90;;;;;;4995070;28;20050;-75
2022/01/22 12:02:06;;;;;;;7.80;4.18;;;5.30;99.90;;;;;;4995175;28;20137;-76
2022/01/22 12:04:53;;;;;;;8.63;4.45;;;5.20;99.90;;;;;;4994963;28;20491;-75
2022/01/22 12:07:22;;;;;;;8.07;4.25;;;5.20;99.90;;;;;;4996265;28;20050;-75
2022/01/22 12:10:19;;;;;;;10.18;4.97;;;5.20;99.90;;;;;;4994694;28;20137;-75
2022/01/22 12:15:53;;;;;;;10.70;5.15;;;5.30;99.90;;;;;;4995347;28;20096;-73
2022/01/22 12:18:30;;;;;;;8.07;4.82;;;5.20;99.90;;;;;;4995366;28;20077;-73
2022/01/22 12:24:05;;;;;;;9.43;4.93;;;5.20;99.90;;;;;;4994986;28;20423;-75
2022/01/22 12:26:49;;;;;;;7.88;4.60;;;5.20;99.90;;;;;;4995110;28;20054;-75
2022/01/22 12:29:39;;;;;;;9.48;5.00;;;5.10;99.90;;;;;;4995457;28;20054;-74
2022/01/22 12:35:14;;;;;;;9.38;5.13;;;5.20;99.90;;;;;;4992327;28;20046;-75
2022/01/22 12:37:45;;;;;;;8.65;4.60;;;5.20;99.90;;;;;;4994496;28;20496;-75
2022/01/22 12:40:13;;;;;;;9.52;4.47;;;5.20;99.90;;;;;;4994522;28;20149;-76
2022/01/22 12:43:01;;;;;;;9.90;5.53;;;5.10;99.90;;;;;;4994659;28;20065;-75
2022/01/22 12:45:28;;;;;;;8.75;5.13;;;5.10;99.90;;;;;;4994648;28;20042;-75
2022/01/22 12:47:56;;;;;;;9.57;5.45;;;5.10;99.90;;;;;;4994253;28;20054;-75
2022/01/22 12:50:29;;;;;;;10.45;5.65;;;5.10;99.90;;;;;;4994403;28;20053;-75
2022/01/22 12:53:02;;;;;;;11.13;5.28;;;5.20;99.90;;;;;;4993904;28;20466;-75
2022/01/22 12:55:49;;;;;;;13.25;5.00;;;5.20;99.90;;;;;;4993508;28;20050;-76
2022/01/22 12:58:24;;;;;;;10.00;5.35;;;5.20;99.90;;;;;;4994546;28;20124;-74
2022/01/22 13:00:52;;;;;;;10.85;5.68;;;5.20;99.90;;;;;;4994810;28;20146;-74
2022/01/22 13:03:42;;;;;;;9.80;5.30;;;5.10;99.90;;;;;;4994624;28;20100;-75
2022/01/22 13:06:09;;;;;;;10.20;4.90;;;5.10;99.90;;;;;;4990383;28;20078;-75
2022/01/22 13:08:37;;;;;;;10.25;5.07;;;5.10;99.90;;;;;;4995001;28;20196;-75
2022/01/22 13:11:07;;;;;;;10.13;5.60;;;5.10;99.90;;;;;;4994771;28;20058;-74
2022/01/22 13:13:35;;;;;;;11.10;5.53;;;5.20;99.90;;;;;;4994854;28;20058;-75
2022/01/22 13:16:04;;;;;;;11.05;5.50;;;5.20;99.90;;;;;;4994542;28;20117;-75
2022/01/22 13:18:50;;;;;;;10.23;5.35;;;5.20;99.90;;;;;;4995072;28;20054;-75
2022/01/22 13:21:19;;;;;;;8.38;5.00;;;5.20;99.90;;;;;;4993648;28;20096;-76
2022/01/22 13:23:58;;;;;;;11.13;5.18;;;5.30;99.90;;;;;;4994746;28;20050;-75
2022/01/22 13:26:41;;;;;;;10.18;5.22;;;5.30;99.90;;;;;;4994395;28;20081;-74
2022/01/22 13:29:27;;;;;;;8.40;4.40;;;5.40;99.90;;;;;;4994197;28;20132;-75
2022/01/22 13:32:08;;;;;;;8.82;4.38;;;5.40;99.90;;;;;;4993737;28;20047;-75
2022/01/22 13:40:30;;;;;;;8.88;4.85;;;5.50;99.90;;;;;;5110062;28;20059;-74
2022/01/22 13:48:39;;;;;;;9.15;4.00;;;5.60;99.90;;;;;;5111795;28;20523;-75
2022/01/22 13:51:07;;;;;;;8.82;4.15;;;5.60;99.90;;;;;;5110980;28;20083;-75
2022/01/22 13:53:39;;;;;;;7.63;4.15;;;5.70;99.90;;;;;;5111568;28;20052;-74
2022/01/22 13:56:09;;;;;;;9.00;4.43;;;5.60;99.90;;;;;;5110860;28;20415;-75
2022/01/22 13:58:39;;;;;;;7.65;4.05;;;5.60;99.90;;;;;;5110974;28;20054;-75
2022/01/22 14:01:18;;;;;;;8.20;4.10;;;5.60;99.90;;;;;;5111018;28;20091;-74
2022/01/22 14:04:04;;;;;;;10.60;4.13;;;5.70;99.90;;;;;;5111293;28;20044;-74
2022/01/22 14:06:33;;;;;;;7.97;3.65;;;5.70;99.90;;;;;;5111056;28;20135;-75
2022/01/22 14:09:12;;;;;;;9.00;4.13;;;5.70;99.90;;;;;;5111390;28;20460;-75
2022/01/22 14:12:01;;;;;;;7.50;4.28;;;5.60;99.90;;;;;;5111659;28;20551;-75
2022/01/22 14:14:30;;;;;;;7.00;3.53;;;5.70;99.90;;;;;;5111602;28;20470;-74
2022/01/22 14:17:09;;;;;;;7.05;3.50;;;5.70;99.90;;;;;;5111239;28;20044;-74
2022/01/22 14:19:36;;;;;;;7.63;3.50;;;5.70;99.90;;;;;;5111258;28;20090;-75
2022/01/22 14:22:04;;;;;;;7.15;3.53;;;5.70;99.90;;;;;;5111267;28;20047;-76
2022/01/22 14:24:33;;;;;;;6.80;3.70;;;5.70;99.90;;;;;;5110903;28;20590;-75
2022/01/22 14:27:00;;;;;;;6.78;3.17;;;5.70;99.90;;;;;;5110891;28;20548;-76
2022/01/22 14:29:26;;;;;;;6.25;3.03;;;5.70;99.90;;;;;;5110988;28;20082;-75
2022/01/22 14:31:57;;;;;;;8.20;3.50;;;5.70;99.90;;;;;;5110842;28;20050;-75
2022/01/22 14:34:32;;;;;;;6.32;3.00;;;5.70;99.90;;;;;;5111057;28;20094;-75